PWSweather.com
Personal Weather Stations
Station Observations
2450ARBOR
Round Rock, TX 78681

Round Rock, TX 78681

Lat: 30.535239, Lon: -97.728137

Elevation: 800

Station Type:

High Low Average
Temperature 54.3°F12.4°C 30.6°F-0.8°C 40.9°F4.9°C
Dew Point 37.0°F2.8°C 21.0°F-6.1°C 26.2°F-3.2°C
Winds 7.0 mph 11.3 kmh Calm Calm 3.0 mph SW4.8 kmh SW
Wind Gusts 11.0 mph17.7 kmh -- 4.0 mph6.4 kmh
Humidity 93% 32% 59%
Pressure 30.25 in1024.4 mb 30.09 in1019.0 mb -
Precipitation 0.03 in0.8 mm - -
Hour Temp Dew Point Humidity Winds Wind Gusts Pressure Precip Precip Rate Daily Precip Total
12:01 AM 40.5°F4.7°C 38.0°F3.3°C 92% 1.0 mph ESE1.6 kmh ESE 3.0 mph4.8 kmh 30.10 in1019.3 mb 0.14 in3.6 mm 8.40 in213.4 mm 0.20 in5.1 mm
12:31 AM 40.1°F4.5°C 38.0°F3.3°C 94% 2.0 mph 3.2 kmh 3.0 mph4.8 kmh 30.10 in1019.3 mb 0.14 in3.6 mm 0.00 in0.0 mm 0.25 in6.4 mm
12:50 AM 39.4°F4.1°C 37.0°F2.8°C 92% 3.0 mph NNW4.8 kmh NNW 4.0 mph6.4 kmh 30.10 in1019.3 mb 0.10 in2.5 mm 0.00 in0.0 mm 0.29 in7.4 mm
01:11 AM 38.8°F3.8°C 37.0°F2.8°C 93% 6.0 mph NNE9.7 kmh NNE 6.0 mph9.7 kmh 30.09 in1019.0 mb 0.10 in2.5 mm 0.00 in0.0 mm 0.02 in0.5 mm
01:51 AM 38.7°F3.7°C 37.0°F2.8°C 92% 2.0 mph W3.2 kmh W 2.0 mph3.2 kmh 30.09 in1019.0 mb 0.02 in0.5 mm 0.00 in0.0 mm 0.02 in0.5 mm
02:21 AM 38.7°F3.7°C 36.0°F2.2°C 91% 2.0 mph NNW3.2 kmh NNW 3.0 mph4.8 kmh 30.09 in1019.0 mb 0.00 in0.0 mm 0.00 in0.0 mm 0.02 in0.5 mm
02:31 AM 38.7°F3.7°C 35.0°F1.7°C 87% 3.0 mph WSW4.8 kmh WSW 4.0 mph6.4 kmh 30.09 in1019.0 mb 0.00 in0.0 mm 0.00 in0.0 mm 0.02 in0.5 mm
02:41 AM 38.8°F3.8°C 34.0°F1.1°C 83% 1.0 mph W1.6 kmh W 5.0 mph8.0 kmh 30.09 in1019.0 mb 0.00 in0.0 mm 0.00 in0.0 mm 0.02 in0.5 mm
03:11 AM 38.3°F3.5°C 29.0°F-1.7°C 70% 2.0 mph W3.2 kmh W 4.0 mph6.4 kmh 30.11 in1019.6 mb 0.00 in0.0 mm 0.00 in0.0 mm 0.02 in0.5 mm
03:41 AM 37.9°F3.3°C 28.0°F-2.2°C 68% 5.0 mph 8.0 kmh 5.0 mph8.0 kmh 30.11 in1019.6 mb 0.00 in0.0 mm 0.00 in0.0 mm 0.02 in0.5 mm
03:51 AM 37.9°F3.3°C 27.0°F-2.8°C 65% 5.0 mph SW8.0 kmh SW 5.0 mph8.0 kmh 30.11 in1019.6 mb 0.00 in0.0 mm 0.00 in0.0 mm 0.02 in0.5 mm
04:21 AM 37.8°F3.2°C 25.0°F-3.9°C 60% 6.0 mph WNW9.7 kmh WNW 6.0 mph9.7 kmh 30.12 in1020.0 mb 0.00 in0.0 mm 0.00 in0.0 mm 0.02 in0.5 mm
04:50 AM 37.6°F3.1°C 25.0°F-3.9°C 60% 6.0 mph WNW9.7 kmh WNW 6.0 mph9.7 kmh 30.12 in1020.0 mb 0.01 in0.3 mm 0.02 in0.5 mm 0.03 in0.8 mm
05:01 AM 37.4°F3.0°C 26.0°F-3.3°C 63% 3.0 mph NNE4.8 kmh NNE 5.0 mph8.0 kmh 30.17 in1021.7 mb 0.01 in0.3 mm 0.00 in0.0 mm 0.03 in0.8 mm
05:21 AM 36.9°F2.7°C 24.0°F-4.4°C 59% 3.0 mph W4.8 kmh W 5.0 mph8.0 kmh 30.17 in1021.7 mb 0.01 in0.3 mm 0.00 in0.0 mm 0.03 in0.8 mm
05:50 AM 36.0°F2.2°C 22.0°F-5.6°C 57% 5.0 mph WNW8.0 kmh WNW 6.0 mph9.7 kmh 30.17 in1021.7 mb 0.00 in0.0 mm 0.00 in0.0 mm 0.03 in0.8 mm
06:11 AM 35.6°F2.0°C 22.0°F-5.6°C 56% 3.0 mph E4.8 kmh E 10.0 mph16.1 kmh 30.16 in1021.3 mb 0.00 in0.0 mm 0.00 in0.0 mm 0.03 in0.8 mm
06:41 AM 35.2°F1.8°C 22.0°F-5.6°C 57% 3.0 mph WNW4.8 kmh WNW 6.0 mph9.7 kmh 30.16 in1021.3 mb 0.00 in0.0 mm 0.00 in0.0 mm 0.03 in0.8 mm
07:01 AM 35.2°F1.8°C 22.0°F-5.6°C 57% 3.0 mph W4.8 kmh W 6.0 mph9.7 kmh 30.20 in1022.7 mb 0.00 in0.0 mm 0.00 in0.0 mm 0.03 in0.8 mm
07:51 AM 34.3°F1.3°C 22.0°F-5.6°C 60% 3.0 mph W4.8 kmh W 4.0 mph6.4 kmh 30.20 in1022.7 mb 0.00 in0.0 mm 0.00 in0.0 mm 0.03 in0.8 mm
08:01 AM 34.3°F1.3°C 22.0°F-5.6°C 60% 5.0 mph 8.0 kmh 7.0 mph11.3 kmh 30.21 in1023.0 mb 0.00 in0.0 mm 0.00 in0.0 mm 0.03 in0.8 mm
08:41 AM 33.4°F0.8°C 21.0°F-6.1°C 61% 4.0 mph NNW6.4 kmh NNW 8.0 mph12.9 kmh 30.21 in1023.0 mb 0.00 in0.0 mm 0.00 in0.0 mm 0.03 in0.8 mm
08:51 AM 33.4°F0.8°C 21.0°F-6.1°C 60% 4.0 mph NNW6.4 kmh NNW 6.0 mph9.7 kmh 30.21 in1023.0 mb 0.00 in0.0 mm 0.00 in0.0 mm 0.03 in0.8 mm
09:01 AM 33.4°F0.8°C 22.0°F-5.6°C 62% 1.0 mph E1.6 kmh E 4.0 mph6.4 kmh 30.23 in1023.7 mb 0.00 in0.0 mm 0.00 in0.0 mm 0.03 in0.8 mm
09:31 AM 34.0°F1.1°C 22.0°F-5.6°C 61% 3.0 mph 4.8 kmh 6.0 mph9.7 kmh 30.23 in1023.7 mb 0.00 in0.0 mm 0.00 in0.0 mm 0.03 in0.8 mm
09:50 AM 34.0°F1.1°C 22.0°F-5.6°C 60% 4.0 mph NW6.4 kmh NW 7.0 mph11.3 kmh 30.23 in1023.7 mb 0.00 in0.0 mm 0.00 in0.0 mm 0.03 in0.8 mm
10:11 AM 34.0°F1.1°C 22.0°F-5.6°C 61% 5.0 mph NW8.0 kmh NW 5.0 mph8.0 kmh 30.24 in1024.0 mb 0.00 in0.0 mm 0.00 in0.0 mm 0.03 in0.8 mm
10:31 AM 35.1°F1.7°C 23.0°F-5.0°C 60% 4.0 mph NW6.4 kmh NW 5.0 mph8.0 kmh 30.24 in1024.0 mb 0.00 in0.0 mm 0.00 in0.0 mm 0.03 in0.8 mm
10:41 AM 36.3°F2.4°C 23.0°F-5.0°C 58% 4.0 mph NNW6.4 kmh NNW 5.0 mph8.0 kmh 30.24 in1024.0 mb 0.00 in0.0 mm 0.00 in0.0 mm 0.03 in0.8 mm
11:01 AM 40.3°F4.6°C 24.0°F-4.4°C 51% 3.0 mph W4.8 kmh W 7.0 mph11.3 kmh 30.25 in1024.4 mb 0.00 in0.0 mm 0.00 in0.0 mm 0.03 in0.8 mm
11:21 AM 41.4°F5.2°C 23.0°F-5.0°C 48% 5.0 mph NNW8.0 kmh NNW 9.0 mph14.5 kmh 30.25 in1024.4 mb 0.00 in0.0 mm 0.00 in0.0 mm 0.03 in0.8 mm
11:31 AM 42.6°F5.9°C 24.0°F-4.4°C 48% 4.0 mph NW6.4 kmh NW 8.0 mph12.9 kmh 30.25 in1024.4 mb 0.00 in0.0 mm 0.00 in0.0 mm 0.03 in0.8 mm
12:11 PM 45.0°F7.2°C 25.0°F-3.9°C 45% 3.0 mph W4.8 kmh W 4.0 mph6.4 kmh 30.25 in1024.4 mb 0.00 in0.0 mm 0.00 in0.0 mm 0.03 in0.8 mm
12:21 PM 45.3°F7.4°C 25.0°F-3.9°C 44% 4.0 mph W6.4 kmh W 7.0 mph11.3 kmh 30.25 in1024.4 mb 0.00 in0.0 mm 0.00 in0.0 mm 0.03 in0.8 mm
12:41 PM 46.2°F7.9°C 25.0°F-3.9°C 43% 5.0 mph SE8.0 kmh SE 8.0 mph12.9 kmh 30.25 in1024.4 mb 0.00 in0.0 mm 0.00 in0.0 mm 0.03 in0.8 mm
01:11 PM 48.2°F9.0°C 26.0°F-3.3°C 41% 3.0 mph WNW4.8 kmh WNW 6.0 mph9.7 kmh 30.23 in1023.7 mb 0.00 in0.0 mm 0.00 in0.0 mm 0.03 in0.8 mm
01:21 PM 48.2°F9.0°C 24.0°F-4.4°C 39% 5.0 mph SW8.0 kmh SW 11.0 mph17.7 kmh 30.23 in1023.7 mb 0.00 in0.0 mm 0.00 in0.0 mm 0.03 in0.8 mm
01:41 PM 50.4°F10.2°C 26.0°F-3.3°C 39% 2.0 mph 3.2 kmh 4.0 mph6.4 kmh 30.23 in1023.7 mb 0.00 in0.0 mm 0.00 in0.0 mm 0.03 in0.8 mm
02:11 PM 51.3°F10.7°C 26.0°F-3.3°C 37% 6.0 mph WSW9.7 kmh WSW 6.0 mph9.7 kmh 30.19 in1022.4 mb 0.00 in0.0 mm 0.00 in0.0 mm 0.03 in0.8 mm
02:31 PM 53.2°F11.8°C 26.0°F-3.3°C 34% 7.0 mph W11.3 kmh W 7.0 mph11.3 kmh 30.19 in1022.4 mb 0.00 in0.0 mm 0.00 in0.0 mm 0.03 in0.8 mm
02:41 PM 52.9°F11.6°C 25.0°F-3.9°C 34% 3.0 mph WNW4.8 kmh WNW 6.0 mph9.7 kmh 30.19 in1022.4 mb 0.00 in0.0 mm 0.00 in0.0 mm 0.03 in0.8 mm
03:11 PM 54.1°F12.3°C 26.0°F-3.3°C 33% 5.0 mph NNW8.0 kmh NNW 6.0 mph9.7 kmh 30.17 in1021.7 mb 0.00 in0.0 mm 0.00 in0.0 mm 0.03 in0.8 mm
04:01 PM 54.3°F12.4°C 26.0°F-3.3°C 34% 2.0 mph NNW3.2 kmh NNW 8.0 mph12.9 kmh 30.14 in1020.7 mb 0.00 in0.0 mm 0.00 in0.0 mm 0.03 in0.8 mm
04:11 PM 54.3°F12.4°C 26.0°F-3.3°C 34% 3.0 mph WNW4.8 kmh WNW 5.0 mph8.0 kmh 30.14 in1020.7 mb 0.00 in0.0 mm 0.00 in0.0 mm 0.03 in0.8 mm
04:31 PM 54.1°F12.3°C 27.0°F-2.8°C 35% 1.0 mph NW1.6 kmh NW 6.0 mph9.7 kmh 30.14 in1020.7 mb 0.00 in0.0 mm 0.00 in0.0 mm 0.03 in0.8 mm
05:11 PM 54.3°F12.4°C 25.0°F-3.9°C 32% 1.0 mph S1.6 kmh S 4.0 mph6.4 kmh 30.13 in1020.3 mb 0.00 in0.0 mm 0.00 in0.0 mm 0.03 in0.8 mm
05:31 PM 54.0°F12.2°C 26.0°F-3.3°C 33% 1.0 mph W1.6 kmh W 5.0 mph8.0 kmh 30.13 in1020.3 mb 0.00 in0.0 mm 0.00 in0.0 mm 0.03 in0.8 mm
06:01 PM 52.7°F11.5°C 25.0°F-3.9°C 34% 2.0 mph W3.2 kmh W 4.0 mph6.4 kmh 30.13 in1020.3 mb 0.00 in0.0 mm 0.00 in0.0 mm 0.03 in0.8 mm
06:21 PM 51.6°F10.9°C 25.0°F-3.9°C 35% Calm Calm 3.0 mph4.8 kmh 30.13 in1020.3 mb 0.00 in0.0 mm 0.00 in0.0 mm 0.03 in0.8 mm
06:41 PM 50.4°F10.2°C 25.0°F-3.9°C 37% Calm Calm 1.0 mph1.6 kmh 30.13 in1020.3 mb 0.00 in0.0 mm 0.00 in0.0 mm 0.03 in0.8 mm
06:51 PM 49.6°F9.8°C 26.0°F-3.3°C 39% 2.0 mph SSW3.2 kmh SSW 2.0 mph3.2 kmh 30.13 in1020.3 mb 0.00 in0.0 mm 0.00 in0.0 mm 0.03 in0.8 mm
07:21 PM 46.9°F8.3°C 26.0°F-3.3°C 44% Calm Calm -- 30.15 in1021.0 mb 0.00 in0.0 mm 0.00 in0.0 mm 0.03 in0.8 mm
07:41 PM 45.0°F7.2°C 27.0°F-2.8°C 49% Calm Calm -- 30.15 in1021.0 mb 0.00 in0.0 mm 0.00 in0.0 mm 0.03 in0.8 mm
08:11 PM 42.1°F5.6°C 26.0°F-3.3°C 53% Calm Calm -- 30.17 in1021.7 mb 0.00 in0.0 mm 0.00 in0.0 mm 0.03 in0.8 mm
08:31 PM 39.9°F4.4°C 30.0°F-1.1°C 66% Calm Calm -- 30.17 in1021.7 mb 0.00 in0.0 mm 0.00 in0.0 mm 0.03 in0.8 mm
08:51 PM 39.2°F4.0°C 30.0°F-1.1°C 69% Calm Calm -- 30.17 in1021.7 mb 0.00 in0.0 mm 0.00 in0.0 mm 0.03 in0.8 mm
09:01 PM 38.1°F3.4°C 29.0°F-1.7°C 70% Calm Calm -- 30.18 in1022.0 mb 0.00 in0.0 mm 0.00 in0.0 mm 0.03 in0.8 mm
09:51 PM 35.6°F2.0°C 29.0°F-1.7°C 76% Calm Calm -- 30.18 in1022.0 mb 0.00 in0.0 mm 0.00 in0.0 mm 0.03 in0.8 mm
10:01 PM 34.7°F1.5°C 29.0°F-1.7°C 79% Calm Calm -- 30.17 in1021.7 mb 0.00 in0.0 mm 0.00 in0.0 mm 0.03 in0.8 mm
10:21 PM 34.2°F1.2°C 30.0°F-1.1°C 84% Calm Calm -- 30.17 in1021.7 mb 0.00 in0.0 mm 0.00 in0.0 mm 0.03 in0.8 mm
10:51 PM 33.4°F0.8°C 28.0°F-2.2°C 82% Calm Calm -- 30.17 in1021.7 mb 0.00 in0.0 mm 0.00 in0.0 mm 0.03 in0.8 mm
11:01 PM 33.3°F0.7°C 28.0°F-2.2°C 82% Calm Calm -- 30.16 in1021.3 mb 0.00 in0.0 mm 0.00 in0.0 mm 0.03 in0.8 mm
11:31 PM 32.4°F0.2°C 28.0°F-2.2°C 83% Calm Calm -- 30.16 in1021.3 mb 0.00 in0.0 mm 0.00 in0.0 mm 0.03 in0.8 mm
11:41 PM 32.0°F0.0°C 28.0°F-2.2°C 85% Calm Calm -- 30.16 in1021.3 mb 0.00 in0.0 mm 0.00 in0.0 mm 0.03 in0.8 mm
11:51 PM 31.3°F-0.4°C 28.0°F-2.2°C 87% Calm Calm -- 30.16 in1021.3 mb 0.00 in0.0 mm 0.00 in0.0 mm 0.03 in0.8 mm